Forside
METAR-TAF:

METAR-TAF

Lufthavne :

Jacksonville Municipal Airport

Jacksonville, Illinois, USA

Breddekreds: 39-46-27N, længdekreds: 090-14-19W, højde: 190 m

Aktuelle vejr

Denne rapport blev lavet for 32 minutter siden, kl. 12:35 UTC
Vind 11 kt fra sydsydøst med vindstød på up til 19 kt
Temperatur -2°C
Fugtighed 63%
Tryk 1019 hPa
Sigt: 16.1 km
Overskyet i en højde af 3500 ft

METAR: KIJX 221235Z AUTO 16011G19KT 10SM OVC035 M02/M08 A3008 RMK AO2 T10201076

Tid: 07:07 (13:07 UTC)


TAF: fraværende

Vejrobservationer og prognoser fra mere end 4000 lufthavne (METAR og TAF).

De gule og røde prikker repræsenterer de meteorologiske stationer.

Flyt musen over at se navnet på stationen.

Så klik over at se vejr observationer og prognoser.

At skifte det kort: Klik på de grønne knapper med et sort kors for at zoome ind; på den grønne knap med en bindestreg for at zoome ud; eller på de grønne pile for tilstødende kort.


METAR-TAF: